Archiv-/Tagesdaten

--Timestamp---	Temp	Chill	HIndex	Humid	Dewpt	 Wind 	HiWind	WindDir	Rain 	Barom	Solar	 ET  	 UV 
--------------	----	-----	------	-----	-----	------	------	-------	-----	-----	-----	-----	----
20110502 00:00	9.6	9.6	9.6	89	7.9	0	5	180	0.0	1008.2	0	0.000	0.0
20110502 00:05	9.6	9.6	9.6	88	7.7	0	5	180	0.0	1008.0	0	0.000	0.0
20110502 00:10	9.4	9.4	9.4	88	7.5	0	2	180	0.0	1008.0	0	0.000	0.0
20110502 00:15	9.2	9.2	9.2	88	7.3	0	2	180	0.0	1008.0	0	0.000	0.0
20110502 00:20	9.1	9.1	9.1	89	7.4	0	2	180	0.0	1008.1	0	0.000	0.0
20110502 00:25	9.0	9.0	9.0	88	7.1	0	0	-100000	0.0	1008.0	0	0.000	0.0
20110502 00:30	8.8	8.8	8.8	88	7.0	0	2	180	0.0	1007.9	0	0.000	0.0
20110502 00:35	8.7	8.7	8.7	88	6.8	0	0	-100000	0.0	1008.0	0	0.000	0.0
20110502 00:40	8.6	8.6	8.6	88	6.7	0	0	-100000	0.0	1008.0	0	0.000	0.0
20110502 00:45	8.4	8.4	8.4	88	6.6	0	0	-100000	0.0	1008.0	0	0.000	0.0
20110502 00:50	8.3	8.3	8.3	88	6.5	0	0	-100000	0.0	1008.0	0	0.000	0.0
20110502 00:55	8.2	8.2	8.2	88	6.4	0	0	-100000	0.0	1008.0	0	0.000	0.0
20110502 01:00	8.1	8.1	8.1	88	6.2	0	0	-100000	0.0	1008.0	0	0.000	0.0
20110502 01:05	7.9	7.9	7.9	88	6.0	0	0	-100000	0.0	1008.1	0	0.000	0.0
20110502 01:10	7.7	7.7	7.7	88	5.9	0	0	-100000	0.0	1008.1	0	0.000	0.0
20110502 01:15	7.6	7.6	7.6	89	5.9	0	0	-100000	0.0	1008.0	0	0.000	0.0
20110502 01:20	7.6	7.6	7.6	88	5.7	0	0	-100000	0.0	1008.0	0	0.000	0.0
20110502 01:25	7.5	7.5	7.5	89	5.8	0	0	-100000	0.0	1008.1	0	0.000	0.0
20110502 01:30	7.4	7.4	7.4	89	5.7	0	0	-100000	0.0	1008.0	0	0.000	0.0
20110502 01:35	7.4	7.4	7.4	89	5.7	0	0	-100000	0.0	1008.0	0	0.000	0.0
20110502 01:40	7.4	7.4	7.4	89	5.7	0	0	-100000	0.0	1008.0	0	0.000	0.0
20110502 01:45	7.2	7.2	7.2	89	5.5	0	0	-100000	0.0	1007.9	0	0.000	0.0
20110502 01:50	7.1	7.1	7.1	89	5.4	0	0	-100000	0.0	1007.9	0	0.000	0.0
20110502 01:55	7.1	7.1	7.1	89	5.4	0	2	180	0.0	1007.8	0	0.000	0.0
20110502 02:00	6.9	6.9	6.9	89	5.3	0	2	180	0.0	1007.7	0	0.000	0.0
20110502 02:05	6.9	6.9	6.9	89	5.2	0	0	-100000	0.0	1007.8	0	0.000	0.0
20110502 02:10	6.8	6.8	6.8	89	5.1	0	0	-100000	0.0	1007.8	0	0.000	0.0
20110502 02:15	6.9	6.9	6.9	90	5.4	0	0	-100000	0.0	1007.8	0	0.000	0.0
20110502 02:20	6.9	6.9	6.9	89	5.2	2	5	180	0.0	1007.8	0	0.000	0.0
20110502 02:25	6.9	6.9	6.9	90	5.4	5	6	180	0.0	1007.7	0	0.000	0.0
20110502 02:30	6.9	6.9	6.9	90	5.4	2	6	180	0.0	1007.6	0	0.000	0.0
20110502 02:35	7.0	7.0	7.0	90	5.5	3	5	180	0.0	1007.5	0	0.000	0.0
20110502 02:40	7.0	7.0	7.0	91	5.6	2	5	180	0.0	1007.4	0	0.000	0.0
20110502 02:45	7.0	7.0	7.0	91	5.6	0	0	-100000	0.0	1007.4	0	0.000	0.0
20110502 02:50	6.9	6.9	6.9	91	5.6	0	0	-100000	0.0	1007.3	0	0.000	0.0
20110502 02:55	6.8	6.8	6.8	90	5.3	0	0	-100000	0.0	1007.5	0	0.000	0.0
20110502 03:00	6.7	6.7	6.7	91	5.4	0	0	-100000	0.0	1007.4	0	0.000	0.0
20110502 03:05	6.7	6.7	6.7	91	5.3	0	0	-100000	0.0	1007.3	0	0.000	0.0
20110502 03:10	6.7	6.7	6.7	91	5.3	0	0	-100000	0.0	1007.3	0	0.000	0.0
20110502 03:15	6.7	6.7	6.7	91	5.4	0	0	-100000	0.0	1007.2	0	0.000	0.0
20110502 03:20	6.7	6.7	6.7	90	5.1	0	0	-100000	0.0	1007.3	0	0.000	0.0
20110502 03:25	6.6	6.6	6.6	90	5.1	0	2	180	0.0	1007.2	0	0.000	0.0
20110502 03:30	6.6	6.6	6.6	90	5.0	0	2	180	0.0	1007.2	0	0.000	0.0
20110502 03:35	6.4	6.4	6.4	90	4.9	0	0	-100000	0.0	1007.2	0	0.000	0.0
20110502 03:40	6.4	6.4	6.4	90	4.9	0	0	-100000	0.0	1007.2	0	0.000	0.0
20110502 03:45	6.4	6.4	6.4	90	4.9	0	0	-100000	0.0	1007.2	0	0.000	0.0
20110502 03:50	6.3	6.3	6.3	90	4.8	0	0	-100000	0.0	1007.1	0	0.000	0.0
20110502 03:55	6.3	6.3	6.3	90	4.8	0	0	-100000	0.0	1007.0	0	0.000	0.0
20110502 04:00	6.3	6.3	6.3	90	4.8	0	0	-100000	0.0	1007.0	0	0.000	0.0
20110502 04:05	6.3	6.3	6.3	90	4.8	0	0	-100000	0.0	1007.2	0	0.000	0.0
20110502 04:10	6.3	6.3	6.3	90	4.8	0	3	180	0.0	1007.1	0	0.000	0.0
20110502 04:15	6.2	6.2	6.2	90	4.7	0	0	-100000	0.0	1007.1	0	0.000	0.0
20110502 04:20	6.2	6.2	6.2	90	4.7	0	2	180	0.0	1007.1	0	0.000	0.0
20110502 04:25	6.2	6.2	6.2	90	4.7	0	0	-100000	0.0	1007.1	0	0.000	0.0
20110502 04:30	6.2	6.2	6.2	90	4.7	0	2	180	0.0	1007.0	0	0.000	0.0
20110502 04:35	6.2	6.2	6.2	90	4.7	0	2	180	0.0	1007.0	0	0.000	0.0
20110502 04:40	6.2	6.2	6.2	90	4.7	0	0	-100000	0.0	1007.0	0	0.000	0.0
20110502 04:45	6.1	6.1	6.1	89	4.4	0	0	-100000	0.0	1007.0	0	0.000	0.0
20110502 04:50	6.0	6.0	6.0	90	4.5	0	0	-100000	0.0	1007.0	0	0.000	0.0
20110502 04:55	6.0	6.0	6.0	90	4.5	0	0	-100000	0.0	1007.1	0	0.000	0.0
20110502 05:00	5.9	5.9	5.9	89	4.2	0	0	-100000	0.0	1007.0	0	0.000	0.0
20110502 05:05	5.7	5.7	5.7	89	4.1	0	0	-100000	0.0	1007.3	0	0.000	0.0
20110502 05:10	5.6	5.6	5.6	89	3.9	0	2	180	0.0	1007.3	0	0.000	0.0
20110502 05:15	5.6	5.6	5.6	90	4.0	0	3	180	0.0	1007.3	0	0.000	0.0
20110502 05:20	5.5	5.5	5.5	90	4.0	2	5	180	0.0	1007.3	0	0.000	0.0
20110502 05:25	5.4	5.4	5.4	90	3.9	0	3	180	0.0	1007.2	0	0.000	0.0
20110502 05:30	5.3	5.3	5.3	90	3.8	0	3	180	0.0	1007.2	0	0.000	0.0
20110502 05:35	5.2	5.2	5.2	90	3.7	0	0	-100000	0.0	1007.2	0	0.000	0.0
20110502 05:40	5.2	5.2	5.2	91	3.9	0	2	180	0.0	1007.1	0	0.000	0.0
20110502 05:45	5.2	5.2	5.2	91	3.9	0	3	180	0.0	1007.1	0	0.000	0.0
20110502 05:50	5.3	5.3	5.3	91	3.9	0	2	180	0.0	1007.1	0	0.000	0.0
20110502 05:55	5.3	5.3	5.3	91	3.9	0	2	180	0.0	1006.9	0	0.000	0.0
20110502 06:00	5.3	5.3	5.3	91	3.9	0	0	-100000	0.0	1006.9	3	0.000	0.0
20110502 06:05	5.3	5.3	5.3	91	3.9	0	2	180	0.0	1007.1	6	0.000	0.0
20110502 06:10	5.2	5.2	5.2	91	3.8	2	6	180	0.0	1007.3	10	0.000	0.0
20110502 06:15	4.8	4.8	4.8	90	3.3	5	8	180	0.0	1007.4	13	0.000	0.0
20110502 06:20	4.4	4.4	4.4	90	2.9	2	5	180	0.0	1007.3	17	0.000	0.0
20110502 06:25	4.3	4.3	4.3	90	2.8	0	3	180	0.0	1007.3	20	0.000	0.0
20110502 06:30	4.2	4.2	4.2	90	2.7	3	6	180	0.0	1007.3	25	0.000	0.0
20110502 06:35	4.1	4.1	4.1	91	2.7	2	5	180	0.0	1007.4	26	0.000	0.0
20110502 06:40	4.1	4.1	4.1	91	2.7	2	3	180	0.0	1007.4	28	0.000	0.0
20110502 06:45	4.1	4.1	4.1	91	2.8	2	5	180	0.0	1007.4	30	0.000	0.0
20110502 06:50	4.3	4.3	4.3	92	3.1	0	5	180	0.0	1007.3	35	0.000	0.0
20110502 06:55	4.4	4.4	4.4	92	3.3	0	5	180	0.0	1007.3	41	0.000	0.0
20110502 07:00	4.6	4.6	4.6	92	3.4	2	5	180	0.0	1007.4	42	0.000	0.0
20110502 07:05	4.8	4.8	4.8	92	3.6	0	2	180	0.0	1007.4	40	0.000	0.0
20110502 07:10	5.1	5.1	5.1	93	4.0	0	0	-100000	0.0	1007.5	46	0.000	0.0
20110502 07:15	5.1	5.1	5.1	92	3.9	0	3	180	0.0	1007.5	47	0.000	0.0
20110502 07:20	5.2	5.2	5.2	92	4.0	2	3	180	0.0	1007.4	47	0.000	0.0
20110502 07:25	5.3	5.3	5.3	93	4.3	0	2	180	0.0	1007.3	49	0.000	0.0
20110502 07:30	5.4	5.4	5.4	93	4.4	0	2	180	0.0	1007.3	52	0.000	0.0
20110502 07:35	5.6	5.6	5.6	93	4.5	0	2	180	0.0	1007.3	54	0.000	0.0
20110502 07:40	5.7	5.7	5.7	93	4.6	0	2	180	0.0	1007.3	61	0.000	0.0
20110502 07:45	5.8	5.8	5.8	93	4.7	0	3	180	0.0	1007.2	71	0.000	0.0
20110502 07:50	6.0	6.0	6.0	93	5.0	2	3	180	0.0	1007.3	75	0.000	0.0
20110502 07:55	6.2	6.2	6.2	93	5.1	2	6	180	0.0	1007.2	76	0.000	0.0
20110502 08:00	6.4	6.4	6.4	93	5.3	2	5	180	0.0	1007.2	63	0.025	0.0
20110502 08:05	6.5	6.5	6.5	93	5.5	3	6	180	0.0	1007.2	62	0.000	0.0
20110502 08:10	6.5	6.5	6.5	93	5.5	5	6	45	0.0	1007.1	81	0.000	0.0
20110502 08:15	6.5	6.5	6.5	93	5.5	3	6	68	0.0	1007.1	94	0.000	0.1
20110502 08:20	6.6	6.6	6.6	93	5.5	2	5	68	0.0	1007.0	99	0.000	0.3
20110502 08:25	6.7	6.7	6.7	93	5.7	2	5	68	0.0	1007.0	111	0.000	0.5
20110502 08:30	7.0	7.0	7.0	94	6.1	0	5	68	0.0	1006.8	119	0.000	0.6
20110502 08:35	7.2	7.2	7.2	94	6.3	2	8	68	0.0	1006.9	133	0.000	0.7
20110502 08:40	7.3	7.3	7.3	94	6.4	3	8	112	0.0	1006.8	129	0.000	0.7
20110502 08:45	7.4	7.4	7.4	94	6.5	2	10	112	0.0	1006.9	132	0.000	0.7
20110502 08:50	7.4	7.4	7.4	94	6.5	5	10	112	0.0	1007.0	132	0.000	0.7
20110502 08:55	7.4	7.4	7.4	93	6.4	3	8	135	0.0	1007.0	118	0.000	0.7
20110502 09:00	7.5	7.5	7.5	93	6.4	3	8	135	0.0	1007.0	140	0.051	0.8
20110502 09:05	7.5	7.5	7.5	93	6.4	5	10	135	0.0	1007.0	145	0.000	0.9
20110502 09:10	7.6	7.6	7.6	94	6.7	2	6	135	0.0	1007.0	136	0.000	0.8
20110502 09:15	7.8	7.8	7.8	94	6.9	2	6	135	0.0	1007.0	153	0.000	0.9
20110502 09:20	7.9	7.9	7.9	93	6.8	2	6	135	0.0	1006.9	136	0.000	0.9
20110502 09:25	8.1	8.1	8.1	94	7.1	2	6	135	0.0	1006.9	162	0.000	1.0
20110502 09:30	8.1	8.1	8.1	93	7.0	3	8	135	0.0	1006.8	180	0.000	1.2
20110502 09:35	8.2	8.2	8.2	93	7.2	3	6	158	0.0	1006.9	182	0.000	1.2
20110502 09:40	8.4	8.4	8.4	93	7.4	2	8	180	0.0	1006.9	193	0.000	1.4
20110502 09:45	8.6	8.6	8.6	93	7.5	3	6	180	0.0	1006.9	212	0.000	1.5
20110502 09:50	8.7	8.7	8.7	92	7.4	2	5	180	0.0	1006.7	209	0.000	1.5
20110502 09:55	8.8	8.8	8.8	92	7.6	5	10	135	0.0	1006.6	267	0.000	1.9
20110502 10:00	9.0	9.0	9.0	91	7.6	3	10	135	0.0	1006.6	315	0.076	2.2
20110502 10:05	9.3	9.3	9.3	91	7.9	3	10	135	0.0	1006.6	336	0.000	2.3
20110502 10:10	9.6	9.6	9.6	90	8.0	3	8	112	0.0	1006.6	278	0.000	2.0
20110502 10:15	9.7	9.7	9.7	89	8.0	3	8	135	0.0	1006.5	253	0.000	2.0
20110502 10:20	9.9	9.9	9.9	88	8.0	2	6	158	0.0	1006.5	227	0.000	1.7
20110502 10:25	10.2	10.2	10.2	87	8.1	2	6	158	0.0	1006.5	264	0.000	2.0
20110502 10:30	10.4	10.4	10.4	87	8.3	5	8	158	0.0	1006.4	286	0.000	2.1
20110502 10:35	10.6	10.6	10.6	86	8.3	8	14	68	0.0	1006.3	388	0.000	2.6
20110502 10:40	10.8	10.8	10.8	85	8.4	8	16	68	0.0	1006.3	399	0.000	2.5
20110502 10:45	11.0	11.0	11.0	84	8.4	6	14	112	0.0	1006.2	425	0.000	2.7
20110502 10:50	11.2	11.2	11.2	84	8.6	5	11	90	0.0	1006.2	447	0.000	3.2
20110502 10:55	11.5	11.5	11.5	82	8.5	6	16	112	0.0	1006.2	569	0.000	3.7
20110502 11:00	11.6	11.6	11.6	81	8.4	5	10	90	0.0	1006.2	442	0.178	3.4
20110502 11:05	11.6	11.6	11.6	81	8.5	6	14	90	0.0	1006.2	523	0.000	4.0
20110502 11:10	11.8	11.8	11.8	80	8.5	6	11	112	0.0	1006.3	937	0.000	4.9
20110502 11:15	12.3	12.3	12.3	80	8.9	5	16	112	0.0	1006.2	695	0.000	4.5
20110502 11:20	12.7	12.7	12.7	77	8.7	6	16	135	0.0	1006.0	835	0.000	5.3
20110502 11:25	12.9	12.9	12.9	77	9.0	5	16	112	0.0	1005.8	490	0.000	4.4
20110502 11:30	12.9	12.9	12.9	75	8.6	6	14	112	0.0	1005.9	459	0.000	4.3
20110502 11:35	12.9	12.9	12.9	77	9.0	5	10	112	0.0	1005.8	759	0.000	5.2
20110502 11:40	12.6	12.6	12.6	75	8.2	5	14	68	0.0	1005.8	764	0.000	5.4
20110502 11:45	12.6	12.6	12.6	77	8.6	8	16	112	0.0	1005.7	479	0.000	4.9
20110502 11:50	12.8	12.8	12.8	77	8.8	3	11	112	0.0	1005.7	462	0.000	4.7
20110502 11:55	12.9	12.9	12.9	76	8.8	6	14	68	0.0	1005.7	660	0.000	5.4
20110502 12:00	13.2	13.2	13.2	76	9.1	6	14	158	0.0	1005.7	555	0.330	4.8
20110502 12:05	13.4	13.4	13.4	74	8.8	5	11	135	0.0	1005.7	517	0.000	4.6
20110502 12:10	13.4	13.4	13.4	74	8.9	6	16	90	0.0	1005.6	483	0.000	4.4
20110502 12:15	13.6	13.6	13.6	73	8.8	6	14	68	0.0	1005.6	470	0.000	4.5
20110502 12:20	13.7	13.7	13.7	73	9.0	5	14	68	0.0	1005.4	591	0.000	5.4
20110502 12:25	13.9	13.9	13.9	71	8.8	10	18	112	0.0	1005.5	702	0.000	6.0
20110502 12:30	14.3	14.3	14.3	69	8.7	6	18	112	0.0	1005.4	972	0.000	6.9
20110502 12:35	14.7	14.7	14.7	67	8.6	10	18	112	0.0	1005.3	881	0.000	6.6
20110502 12:40	15.0	15.0	15.0	65	8.5	10	19	112	0.0	1005.2	1129	0.000	6.5
20110502 12:45	15.1	15.1	15.1	65	8.5	8	18	135	0.0	1005.1	491	0.000	5.0
20110502 12:50	15.2	15.2	15.2	61	7.7	10	18	90	0.0	1005.0	555	0.000	5.3
20110502 12:55	15.3	15.3	15.3	59	7.3	10	19	112	0.0	1004.9	584	0.000	5.5
20110502 13:00	15.4	15.4	15.4	60	7.7	10	21	112	0.0	1004.8	919	0.381	6.8
20110502 13:05	15.7	15.7	15.7	61	8.2	8	19	112	0.0	1004.9	838	0.000	6.6
20110502 13:10	15.9	15.9	15.9	56	7.2	13	21	112	0.0	1004.6	865	0.000	6.1
20110502 13:15	15.9	15.9	15.9	58	7.6	13	21	135	0.0	1004.6	806	0.000	6.4
20110502 13:20	15.8	15.8	15.8	58	7.6	10	23	112	0.0	1004.5	842	0.000	6.7
20110502 13:25	15.9	15.9	15.9	57	7.4	13	21	135	0.0	1004.5	816	0.000	6.6
20110502 13:30	16.2	16.2	16.2	58	7.9	8	21	112	0.0	1004.5	809	0.000	6.6
20110502 13:35	16.3	16.3	16.3	57	7.8	13	24	112	0.0	1004.4	808	0.000	6.5
20110502 13:40	16.3	16.3	16.3	54	7.0	8	16	90	0.0	1004.3	805	0.000	6.5
20110502 13:45	16.4	16.4	16.4	51	6.2	11	18	68	0.0	1004.3	804	0.000	6.5
20110502 13:50	16.4	16.4	16.4	52	6.5	8	18	68	0.0	1004.3	801	0.000	6.5
20110502 13:55	16.7	16.7	16.7	52	6.8	10	18	112	0.0	1004.3	795	0.000	6.4
20110502 14:00	16.8	16.8	16.8	51	6.6	6	11	112	0.0	1004.1	794	0.483	6.3
20110502 14:05	16.9	16.9	16.9	51	6.7	10	23	68	0.0	1004.0	795	0.000	6.3
20110502 14:10	17.0	17.0	17.0	50	6.5	8	21	90	0.0	1004.0	787	0.000	6.2
20110502 14:15	17.0	17.0	17.0	49	6.2	11	19	135	0.0	1004.0	775	0.000	6.1
20110502 14:20	17.2	17.2	17.2	48	6.1	10	19	112	0.0	1003.9	780	0.000	6.1
20110502 14:25	17.3	17.3	17.3	48	6.2	10	19	112	0.0	1003.9	785	0.000	6.0
20110502 14:30	17.4	17.4	17.4	49	6.6	6	19	158	0.0	1003.9	788	0.000	5.9
20110502 14:35	17.8	17.8	17.8	47	6.4	5	14	135	0.0	1003.6	764	0.000	5.8
20110502 14:40	17.9	17.9	17.9	47	6.5	5	14	158	0.0	1003.6	763	0.000	5.7
20110502 14:45	18.3	18.3	18.3	47	6.8	5	14	180	0.0	1003.5	749	0.000	5.6
20110502 14:50	18.4	18.4	18.4	46	6.6	6	18	112	0.0	1003.5	749	0.000	5.5
20110502 14:55	18.3	18.3	18.3	46	6.5	3	10	158	0.0	1003.5	738	0.000	5.4
20110502 15:00	18.4	18.4	18.4	46	6.6	3	13	248	0.0	1003.4	646	0.457	5.0
20110502 15:05	18.3	18.3	18.3	46	6.5	6	18	135	0.0	1003.3	745	0.000	5.2
20110502 15:10	18.2	18.2	18.2	47	6.7	6	16	112	0.0	1003.3	726	0.000	5.0
20110502 15:15	18.1	18.1	18.1	47	6.6	5	11	112	0.0	1003.2	724	0.000	4.8
20110502 15:20	18.3	18.3	18.3	46	6.5	6	19	112	0.0	1003.1	753	0.000	4.7
20110502 15:25	18.4	18.4	18.4	47	6.9	8	18	135	0.0	1003.0	733	0.000	4.7
20110502 15:30	18.5	18.5	18.5	47	7.0	3	10	135	0.0	1003.0	681	0.000	4.4
20110502 15:35	18.3	18.3	18.3	45	6.2	6	11	68	0.0	1002.9	676	0.000	4.3
20110502 15:40	18.2	18.2	18.2	47	6.7	10	19	68	0.0	1002.9	670	0.000	4.2
20110502 15:45	18.2	18.2	18.2	46	6.4	10	19	112	0.0	1002.8	664	0.000	4.1
20110502 15:50	18.0	18.0	18.0	46	6.2	8	16	90	0.0	1003.0	638	0.000	3.9
20110502 15:55	18.1	18.1	18.1	46	6.3	10	23	45	0.0	1002.8	623	0.000	3.8
20110502 16:00	18.1	18.1	18.1	47	6.6	10	18	90	0.0	1002.8	629	0.432	3.7
20110502 16:05	18.1	18.1	18.1	47	6.6	10	19	90	0.0	1002.7	626	0.000	3.6
20110502 16:10	18.2	18.2	18.2	46	6.4	10	16	90	0.0	1002.7	607	0.000	3.4
20110502 16:15	18.4	18.4	18.4	46	6.6	8	14	90	0.0	1002.7	591	0.000	3.3
20110502 16:20	18.3	18.3	18.3	45	6.1	8	16	90	0.0	1002.6	563	0.000	3.1
20110502 16:25	18.3	18.3	18.3	45	6.1	8	16	45	0.0	1002.6	559	0.000	3.0
20110502 16:30	18.3	18.3	18.3	45	6.2	11	19	68	0.0	1002.6	540	0.000	2.9
20110502 16:35	18.2	18.2	18.2	46	6.4	8	14	68	0.0	1002.6	519	0.000	2.7
20110502 16:40	18.3	18.3	18.3	45	6.2	6	11	90	0.0	1002.5	478	0.000	2.5
20110502 16:45	18.3	18.3	18.3	44	5.9	6	14	135	0.0	1002.5	477	0.000	2.4
20110502 16:50	18.4	18.4	18.4	45	6.3	8	16	112	0.0	1002.3	509	0.000	2.4
20110502 16:55	18.4	18.4	18.4	45	6.2	10	16	68	0.0	1002.4	495	0.000	2.3
20110502 17:00	18.3	18.3	18.3	45	6.2	6	13	68	0.0	1002.3	504	0.356	2.2
20110502 17:05	18.3	18.3	18.3	46	6.5	8	18	68	0.0	1002.3	487	0.000	2.1
20110502 17:10	18.4	18.4	18.4	44	6.0	8	18	68	0.0	1002.3	472	0.000	2.0
20110502 17:15	18.3	18.3	18.3	45	6.1	8	18	90	0.0	1002.3	456	0.000	1.9
20110502 17:20	18.3	18.3	18.3	45	6.2	6	16	90	0.0	1002.3	443	0.000	1.8
20110502 17:25	18.3	18.3	18.3	44	5.8	6	18	68	0.0	1002.2	427	0.000	1.7
20110502 17:30	18.3	18.3	18.3	45	6.1	8	18	68	0.0	1002.1	412	0.000	1.6
20110502 17:35	18.3	18.3	18.3	45	6.1	8	16	68	0.0	1002.1	395	0.000	1.4
20110502 17:40	18.2	18.2	18.2	44	5.8	8	16	68	0.0	1002.1	381	0.000	1.4
20110502 17:45	18.1	18.1	18.1	46	6.3	8	16	68	0.0	1002.2	376	0.000	1.3
20110502 17:50	18.2	18.2	18.2	45	6.1	5	11	68	0.0	1002.1	359	0.000	1.2
20110502 17:55	18.2	18.2	18.2	46	6.4	8	14	45	0.0	1002.1	340	0.000	1.1
20110502 18:00	18.2	18.2	18.2	45	6.1	8	14	22	0.0	1002.1	328	0.279	1.0
20110502 18:05	18.2	18.2	18.2	46	6.4	8	14	68	0.0	1002.2	320	0.000	1.0
20110502 18:10	18.1	18.1	18.1	45	6.0	10	18	68	0.0	1002.2	322	0.000	0.9
20110502 18:15	18.1	18.1	18.1	45	5.9	5	10	45	0.0	1002.2	317	0.000	0.8
20110502 18:20	18.0	18.0	18.0	45	5.9	8	16	68	0.0	1002.2	283	0.000	0.8
20110502 18:25	17.9	17.9	17.9	46	6.1	6	14	90	0.0	1002.1	260	0.000	0.7
20110502 18:30	17.9	17.9	17.9	45	5.8	6	16	90	0.0	1002.1	250	0.000	0.6
20110502 18:35	17.8	17.8	17.8	45	5.7	10	18	68	0.0	1002.1	239	0.000	0.6
20110502 18:40	17.8	17.8	17.8	46	6.0	8	14	68	0.0	1002.1	203	0.000	0.5
20110502 18:45	17.7	17.7	17.7	46	5.9	6	16	68	0.0	1002.1	109	0.000	0.3
20110502 18:50	17.5	17.5	17.5	47	6.1	5	8	68	0.0	1002.2	139	0.000	0.0
20110502 18:55	17.3	17.3	17.3	47	5.9	5	8	45	0.0	1002.4	100	0.000	0.0
20110502 19:00	17.3	17.3	17.3	48	6.2	5	10	68	0.0	1002.5	83	0.178	0.0
20110502 19:05	17.2	17.2	17.2	48	6.1	3	8	68	0.0	1002.3	77	0.000	0.0
20110502 19:10	17.1	17.1	17.1	48	6.0	6	11	68	0.0	1002.4	69	0.000	0.0
20110502 19:15	17.0	17.0	17.0	48	5.9	3	11	68	0.0	1002.4	62	0.000	0.0
20110502 19:20	16.9	16.9	16.9	48	5.8	2	6	68	0.0	1002.3	61	0.000	0.0
20110502 19:25	16.8	16.8	16.8	50	6.3	3	6	90	0.0	1002.3	62	0.000	0.0
20110502 19:30	16.7	16.7	16.7	50	6.2	3	6	90	0.0	1002.3	62	0.000	0.0
20110502 19:35	16.6	16.6	16.6	50	6.1	2	6	90	0.0	1002.2	41	0.000	0.0
20110502 19:40	16.4	16.4	16.4	51	6.3	2	5	90	0.0	1002.3	34	0.000	0.0
20110502 19:45	16.3	16.3	16.3	53	6.7	5	14	225	0.0	1002.3	27	0.000	0.0
20110502 19:50	15.8	15.8	15.8	55	6.8	6	14	202	0.0	1002.5	20	0.000	0.0
20110502 19:55	15.2	15.2	15.2	58	7.0	10	23	202	0.0	1002.6	18	0.000	0.0
20110502 20:00	14.7	14.7	14.7	59	6.7	10	24	225	0.0	1002.6	12	0.051	0.0
20110502 20:05	14.3	14.3	14.3	60	6.6	6	16	202	0.0	1002.5	9	0.000	0.0
20110502 20:10	13.9	13.9	13.9	62	6.8	8	16	202	0.0	1002.7	8	0.000	0.0
20110502 20:15	13.7	13.7	13.7	63	6.8	8	16	180	0.0	1002.7	-100000	0.000	0.0
20110502 20:20	13.4	13.4	13.4	65	7.0	6	14	202	0.0	1002.7	3	0.000	0.0
20110502 20:25	13.3	13.3	13.3	66	7.1	5	10	180	0.0	1002.7	0	0.000	0.0
20110502 20:30	13.1	13.1	13.1	67	7.1	6	13	202	0.0	1002.7	0	0.000	0.0
20110502 20:35	12.9	12.9	12.9	68	7.1	5	10	202	0.0	1002.8	0	0.000	0.0
20110502 20:40	12.8	12.8	12.8	69	7.2	2	10	180	0.0	1002.8	0	0.000	0.0
20110502 20:45	12.7	12.7	12.7	70	7.3	3	6	180	0.0	1002.8	0	0.000	0.0
20110502 20:50	12.6	12.6	12.6	71	7.5	3	8	180	0.0	1002.9	0	0.000	0.0
20110502 20:55	12.5	12.5	12.5	71	7.4	2	6	180	0.0	1002.9	0	0.000	0.0
20110502 21:00	12.4	12.4	12.4	72	7.5	2	6	180	0.0	1002.9	0	0.025	0.0
20110502 21:05	12.3	12.3	12.3	73	7.6	0	3	180	0.0	1002.8	0	0.000	0.0
20110502 21:10	12.1	12.1	12.1	74	7.6	3	6	180	0.0	1002.9	0	0.000	0.0
20110502 21:15	12.0	12.0	12.0	75	7.7	3	8	180	0.0	1003.0	0	0.000	0.0
20110502 21:20	11.9	11.9	11.9	75	7.6	2	6	180	0.0	1003.2	0	0.000	0.0
20110502 21:25	11.8	11.8	11.8	76	7.7	2	8	180	0.0	1003.3	0	0.000	0.0
20110502 21:30	11.8	11.8	11.8	77	7.9	0	3	180	0.0	1003.3	0	0.000	0.0
20110502 21:35	11.9	11.9	11.9	77	8.0	2	8	180	0.0	1003.4	0	0.000	0.0
20110502 21:40	11.8	11.8	11.8	77	7.9	5	8	202	0.0	1003.5	0	0.000	0.0
20110502 21:45	11.8	11.8	11.8	78	8.1	5	10	202	0.0	1003.5	0	0.000	0.0
20110502 21:50	11.8	11.8	11.8	78	8.1	2	6	202	0.0	1003.5	0	0.000	0.0
20110502 21:55	11.7	11.7	11.7	79	8.2	3	6	202	0.0	1003.5	0	0.000	0.0
20110502 22:00	11.7	11.7	11.7	80	8.3	3	6	202	0.0	1003.5	0	0.025	0.0
20110502 22:05	11.6	11.6	11.6	80	8.3	3	6	202	0.0	1003.2	0	0.000	0.0
20110502 22:10	11.6	11.6	11.6	81	8.4	2	6	202	0.0	1003.2	0	0.000	0.0
20110502 22:15	11.5	11.5	11.5	81	8.4	3	8	202	0.0	1003.1	0	0.000	0.0
20110502 22:20	11.4	11.4	11.4	82	8.5	3	6	202	0.0	1003.1	0	0.000	0.0
20110502 22:25	11.4	11.4	11.4	82	8.5	2	8	202	0.0	1003.0	0	0.000	0.0
20110502 22:30	11.4	11.4	11.4	82	8.5	2	5	202	0.0	1002.9	0	0.000	0.0
20110502 22:35	11.4	11.4	11.4	83	8.7	2	6	202	0.0	1002.8	0	0.000	0.0
20110502 22:40	11.4	11.4	11.4	83	8.6	3	6	202	0.0	1002.7	0	0.000	0.0
20110502 22:45	11.4	11.4	11.4	83	8.6	2	5	202	0.0	1002.6	0	0.000	0.0
20110502 22:50	11.3	11.3	11.3	83	8.5	2	6	202	0.0	1002.8	0	0.000	0.0
20110502 22:55	11.3	11.3	11.3	84	8.7	2	6	202	0.0	1002.8	0	0.000	0.0
20110502 23:00	11.3	11.3	11.3	84	8.7	0	0	-100000	0.0	1002.7	0	0.025	0.0
20110502 23:05	11.3	11.3	11.3	84	8.7	2	5	202	0.0	1002.4	0	0.000	0.0
20110502 23:10	11.3	11.3	11.3	84	8.7	2	5	202	0.0	1002.3	0	0.000	0.0
20110502 23:15	11.3	11.3	11.3	84	8.7	0	3	202	0.0	1002.3	0	0.000	0.0
20110502 23:20	11.3	11.3	11.3	84	8.7	0	5	202	0.0	1002.2	0	0.000	0.0
20110502 23:25	11.2	11.2	11.2	84	8.6	3	6	202	0.0	1002.1	0	0.000	0.0
20110502 23:30	11.2	11.2	11.2	84	8.6	0	5	202	0.0	1002.1	0	0.000	0.0
20110502 23:35	11.2	11.2	11.2	84	8.6	0	2	202	0.0	1002.3	0	0.000	0.0
20110502 23:40	11.2	11.2	11.2	84	8.6	2	5	202	0.0	1002.2	0	0.000	0.0
20110502 23:45	11.1	11.1	11.1	84	8.5	0	5	202	0.0	1002.1	0	0.000	0.0
20110502 23:50	10.8	10.8	10.8	84	8.2	0	5	202	0.0	1002.0	0	0.000	0.0
20110502 23:55	10.7	10.7	10.7	84	8.1	0	0	-100000	0.0	1002.2	0	0.000	0.0



Please note the license to use and transfer of this data:
http://creativecommons.org/licenses/by-nc-sa/3.0/deed.en

Bitte beachten sie die Lizenz zur Verwertung und Weitergabe der Daten:
http://creativecommons.org/licenses/by-nc-sa/3.0/deed.de

zurück zur Übersicht der Archivdaten (Monats und Tagesdaten)

Cookies helfen bei der Bereitstellung von Inhalten. Durch die Nutzung dieser Seiten erklärst du dich damit einverstanden, dass Cookies auf deinem Rechner gespeichert werden. Weitere Information